sensor_id;sensor_type;location;lat;lon;timestamp;pressure;altitude;pressure_sealevel;temperature;humidity
65800;BME280;52544;48.116;11.660;2023-04-22T00:00:36;95100.53;;;9.33;93.61
65800;BME280;52544;48.116;11.660;2023-04-22T00:03:02;95102.19;;;9.34;94.24
65800;BME280;52544;48.116;11.660;2023-04-22T00:05:28;95097.03;;;9.22;94.99
65800;BME280;52544;48.116;11.660;2023-04-22T00:07:53;95104.41;;;9.29;94.81
65800;BME280;52544;48.116;11.660;2023-04-22T00:10:19;95102.03;;;9.25;94.98
65800;BME280;52544;48.116;11.660;2023-04-22T00:12:44;95105.25;;;9.29;95.18
65800;BME280;52544;48.116;11.660;2023-04-22T00:15:10;95105.56;;;9.36;94.51
65800;BME280;52544;48.116;11.660;2023-04-22T00:17:36;95096.66;;;9.37;93.48
65800;BME280;52544;48.116;11.660;2023-04-22T00:20:02;95103.56;;;9.18;94.30
65800;BME280;52544;48.116;11.660;2023-04-22T00:22:28;95094.81;;;9.18;95.25
65800;BME280;52544;48.116;11.660;2023-04-22T00:24:53;95097.72;;;9.24;95.54
65800;BME280;52544;48.116;11.660;2023-04-22T00:27:18;95105.66;;;9.24;95.18
65800;BME280;52544;48.116;11.660;2023-04-22T00:29:44;95097.84;;;9.13;95.20
65800;BME280;52544;48.116;11.660;2023-04-22T00:32:09;95092.22;;;8.97;96.22
65800;BME280;52544;48.116;11.660;2023-04-22T00:34:35;95098.09;;;9.00;96.62
65800;BME280;52544;48.116;11.660;2023-04-22T00:37:00;95093.50;;;9.02;95.86
65800;BME280;52544;48.116;11.660;2023-04-22T00:39:26;95099.81;;;8.90;96.97
65800;BME280;52544;48.116;11.660;2023-04-22T00:41:51;95099.88;;;9.00;95.88
65800;BME280;52544;48.116;11.660;2023-04-22T00:44:17;95103.72;;;8.96;96.00
65800;BME280;52544;48.116;11.660;2023-04-22T00:46:43;95100.41;;;8.94;97.09
65800;BME280;52544;48.116;11.660;2023-04-22T00:49:09;95111.22;;;8.91;97.17
65800;BME280;52544;48.116;11.660;2023-04-22T00:51:35;95092.06;;;8.89;96.65
65800;BME280;52544;48.116;11.660;2023-04-22T00:54:00;95102.63;;;8.89;96.78
65800;BME280;52544;48.116;11.660;2023-04-22T00:56:26;95102.63;;;8.89;96.34
65800;BME280;52544;48.116;11.660;2023-04-22T00:58:53;95098.84;;;8.91;96.62
65800;BME280;52544;48.116;11.660;2023-04-22T01:01:19;95098.69;;;8.83;96.50
65800;BME280;52544;48.116;11.660;2023-04-22T01:03:47;95107.88;;;8.89;96.97
65800;BME280;52544;48.116;11.660;2023-04-22T01:06:14;95103.91;;;8.73;97.10
65800;BME280;52544;48.116;11.660;2023-04-22T01:08:40;95098.63;;;8.73;97.41
65800;BME280;52544;48.116;11.660;2023-04-22T01:11:05;95098.63;;;8.73;97.53
65800;BME280;52544;48.116;11.660;2023-04-22T01:13:31;95097.41;;;8.77;97.45
65800;BME280;52544;48.116;11.660;2023-04-22T01:15:59;95103.22;;;8.71;97.55
65800;BME280;52544;48.116;11.660;2023-04-22T01:18:25;95112.00;;;8.82;96.88
65800;BME280;52544;48.116;11.660;2023-04-22T01:20:51;95099.06;;;8.79;97.38
65800;BME280;52544;48.116;11.660;2023-04-22T01:23:21;95106.81;;;8.70;98.24
65800;BME280;52544;48.116;11.660;2023-04-22T01:25:47;95101.69;;;8.69;98.64
65800;BME280;52544;48.116;11.660;2023-04-22T01:28:15;95103.34;;;8.70;97.98
65800;BME280;52544;48.116;11.660;2023-04-22T01:30:41;95105.03;;;8.71;97.72
65800;BME280;52544;48.116;11.660;2023-04-22T01:33:11;95098.06;;;8.70;98.08
65800;BME280;52544;48.116;11.660;2023-04-22T01:35:36;95106.81;;;8.70;98.26
65800;BME280;52544;48.116;11.660;2023-04-22T01:38:07;95096.53;;;8.67;97.95
65800;BME280;52544;48.116;11.660;2023-04-22T01:40:33;95095.13;;;8.63;97.83
65800;BME280;52544;48.116;11.660;2023-04-22T01:42:59;95100.59;;;8.71;97.61
65800;BME280;52544;48.116;11.660;2023-04-22T01:45:25;95102.75;;;8.66;97.53
65800;BME280;52544;48.116;11.660;2023-04-22T01:47:51;95102.47;;;8.60;98.10
65800;BME280;52544;48.116;11.660;2023-04-22T01:50:17;95105.09;;;8.60;98.03
65800;BME280;52544;48.116;11.660;2023-04-22T01:52:42;95097.19;;;8.60;97.75
65800;BME280;52544;48.116;11.660;2023-04-22T01:55:08;95100.72;;;8.49;98.60
65800;BME280;52544;48.116;11.660;2023-04-22T01:57:34;95101.94;;;8.45;99.04
65800;BME280;52544;48.116;11.660;2023-04-22T02:00:00;95103.75;;;8.44;99.17
65800;BME280;52544;48.116;11.660;2023-04-22T02:02:25;95097.25;;;8.48;99.21
65800;BME280;52544;48.116;11.660;2023-04-22T02:04:51;95108.19;;;8.44;99.15
65800;BME280;52544;48.116;11.660;2023-04-22T02:07:16;95110.84;;;8.44;99.92
65800;BME280;52544;48.116;11.660;2023-04-22T02:09:42;95106.78;;;8.40;99.42
65800;BME280;52544;48.116;11.660;2023-04-22T02:12:07;95112.31;;;8.37;99.55
65800;BME280;52544;48.116;11.660;2023-04-22T02:14:33;95110.81;;;8.23;100.00
65800;BME280;52544;48.116;11.660;2023-04-22T02:16:58;95117.47;;;8.06;100.00
65800;BME280;52544;48.116;11.660;2023-04-22T02:19:23;95117.91;;;8.11;100.00
65800;BME280;52544;48.116;11.660;2023-04-22T02:21:49;95114.59;;;8.09;100.00
65800;BME280;52544;48.116;11.660;2023-04-22T02:24:14;95104.94;;;8.19;100.00
65800;BME280;52544;48.116;11.660;2023-04-22T02:26:40;95115.47;;;8.19;100.00
65800;BME280;52544;48.116;11.660;2023-04-22T02:29:07;95110.94;;;8.21;100.00
65800;BME280;52544;48.116;11.660;2023-04-22T02:31:32;95115.59;;;7.97;100.00
65800;BME280;52544;48.116;11.660;2023-04-22T02:33:58;95108.78;;;8.15;100.00
65800;BME280;52544;48.116;11.660;2023-04-22T02:36:23;95106.88;;;8.17;100.00
65800;BME280;52544;48.116;11.660;2023-04-22T02:38:49;95105.22;;;8.16;100.00
65800;BME280;52544;48.116;11.660;2023-04-22T02:41:14;95104.69;;;8.22;100.00
65800;BME280;52544;48.116;11.660;2023-04-22T02:43:39;95104.84;;;8.21;100.00
65800;BME280;52544;48.116;11.660;2023-04-22T02:46:10;95106.34;;;8.23;100.00
65800;BME280;52544;48.116;11.660;2023-04-22T02:48:37;95107.53;;;8.10;100.00
65800;BME280;52544;48.116;11.660;2023-04-22T02:51:02;95106.69;;;8.09;100.00
65800;BME280;52544;48.116;11.660;2023-04-22T02:56:49;95106.16;;;7.94;100.00
65800;BME280;52544;48.116;11.660;2023-04-22T02:59:15;95102.44;;;7.97;100.00
65800;BME280;52544;48.116;11.660;2023-04-22T03:01:40;95105.59;;;7.91;100.00
65800;BME280;52544;48.116;11.660;2023-04-22T03:04:06;95095.44;;;7.86;100.00
65800;BME280;52544;48.116;11.660;2023-04-22T03:06:31;95096.94;;;7.89;100.00
65800;BME280;52544;48.116;11.660;2023-04-22T03:08:57;95096.25;;;7.87;100.00
65800;BME280;52544;48.116;11.660;2023-04-22T03:11:22;95098.88;;;7.87;100.00
65800;BME280;52544;48.116;11.660;2023-04-22T03:13:48;95096.50;;;7.84;100.00
65800;BME280;52544;48.116;11.660;2023-04-22T03:16:15;95098.75;;;7.88;100.00
65800;BME280;52544;48.116;11.660;2023-04-22T03:18:41;95097.72;;;7.80;100.00
65800;BME280;52544;48.116;11.660;2023-04-22T03:21:06;95090.88;;;7.77;100.00
65800;BME280;52544;48.116;11.660;2023-04-22T03:23:32;95093.06;;;7.72;100.00
65800;BME280;52544;48.116;11.660;2023-04-22T03:25:58;95091.53;;;7.69;100.00
65800;BME280;52544;48.116;11.660;2023-04-22T03:28:23;95093.44;;;7.67;100.00
65800;BME280;52544;48.116;11.660;2023-04-22T03:30:48;95096.59;;;7.61;100.00
65800;BME280;52544;48.116;11.660;2023-04-22T03:33:14;95093.97;;;7.61;100.00
65800;BME280;52544;48.116;11.660;2023-04-22T03:35:39;95087.75;;;7.51;100.00
65800;BME280;52544;48.116;11.660;2023-04-22T03:38:05;95089.34;;;7.42;100.00
65800;BME280;52544;48.116;11.660;2023-04-22T03:40:30;95092.31;;;7.49;100.00
65800;BME280;52544;48.116;11.660;2023-04-22T03:42:56;95095.44;;;7.43;100.00
65800;BME280;52544;48.116;11.660;2023-04-22T03:45:21;95099.16;;;7.40;100.00
65800;BME280;52544;48.116;11.660;2023-04-22T03:47:47;95101.78;;;7.40;100.00
65800;BME280;52544;48.116;11.660;2023-04-22T03:50:12;95092.78;;;7.43;100.00
65800;BME280;52544;48.116;11.660;2023-04-22T03:52:38;95106.47;;;7.37;100.00
65800;BME280;52544;48.116;11.660;2023-04-22T03:55:03;95103.84;;;7.37;100.00
65800;BME280;52544;48.116;11.660;2023-04-22T03:57:29;95097.84;;;7.35;100.00
65800;BME280;52544;48.116;11.660;2023-04-22T03:59:54;95110.06;;;7.36;100.00
65800;BME280;52544;48.116;11.660;2023-04-22T04:02:20;95107.94;;;7.18;100.00
65800;BME280;52544;48.116;11.660;2023-04-22T04:04:45;95101.72;;;7.19;100.00
65800;BME280;52544;48.116;11.660;2023-04-22T04:07:12;95103.88;;;7.03;100.00
65800;BME280;52544;48.116;11.660;2023-04-22T04:09:38;95110.59;;;6.85;100.00
65800;BME280;52544;48.116;11.660;2023-04-22T04:12:03;95109.03;;;6.71;100.00
65800;BME280;52544;48.116;11.660;2023-04-22T04:14:29;95107.84;;;6.64;100.00
65800;BME280;52544;48.116;11.660;2023-04-22T04:16:54;95104.25;;;6.76;100.00
65800;BME280;52544;48.116;11.660;2023-04-22T04:19:19;95105.81;;;6.90;100.00
65800;BME280;52544;48.116;11.660;2023-04-22T04:21:45;95102.22;;;6.91;100.00
65800;BME280;52544;48.116;11.660;2023-04-22T04:24:11;95107.47;;;6.91;100.00
65800;BME280;52544;48.116;11.660;2023-04-22T04:26:36;95109.88;;;6.71;100.00
65800;BME280;52544;48.116;11.660;2023-04-22T04:29:02;95110.00;;;6.81;100.00
65800;BME280;52544;48.116;11.660;2023-04-22T04:31:28;95102.22;;;6.91;100.00
65800;BME280;52544;48.116;11.660;2023-04-22T04:33:53;95110.84;;;6.93;100.00
65800;BME280;52544;48.116;11.660;2023-04-22T04:36:21;95113.56;;;6.91;100.00
65800;BME280;52544;48.116;11.660;2023-04-22T04:38:50;95113.84;;;6.88;100.00
65800;BME280;52544;48.116;11.660;2023-04-22T04:41:16;95105.91;;;6.99;100.00
65800;BME280;52544;48.116;11.660;2023-04-22T04:43:41;95107.25;;;6.94;100.00
65800;BME280;52544;48.116;11.660;2023-04-22T04:46:10;95101.03;;;6.95;100.00
65800;BME280;52544;48.116;11.660;2023-04-22T04:48:35;95096.50;;;6.97;100.00
65800;BME280;52544;48.116;11.660;2023-04-22T04:51:01;95099.59;;;7.02;100.00
65800;BME280;52544;48.116;11.660;2023-04-22T04:53:26;95100.06;;;7.07;100.00
65800;BME280;52544;48.116;11.660;2023-04-22T04:55:51;95104.81;;;7.13;100.00
65800;BME280;52544;48.116;11.660;2023-04-22T04:58:17;95104.13;;;7.22;100.00
65800;BME280;52544;48.116;11.660;2023-04-22T05:00:42;95107.31;;;7.26;100.00
65800;BME280;52544;48.116;11.660;2023-04-22T05:03:08;95110.06;;;7.36;100.00
65800;BME280;52544;48.116;11.660;2023-04-22T05:05:33;95118.44;;;7.41;99.28
65800;BME280;52544;48.116;11.660;2023-04-22T05:07:59;95114.34;;;7.48;99.02
65800;BME280;52544;48.116;11.660;2023-04-22T05:10:24;95113.84;;;7.54;98.51
65800;BME280;52544;48.116;11.660;2023-04-22T05:12:50;95103.66;;;7.61;97.92
65800;BME280;52544;48.116;11.660;2023-04-22T05:15:15;95108.41;;;7.67;97.15
65800;BME280;52544;48.116;11.660;2023-04-22T05:17:41;95112.47;;;7.71;96.19
65800;BME280;52544;48.116;11.660;2023-04-22T05:20:07;95111.97;;;7.77;95.68
65800;BME280;52544;48.116;11.660;2023-04-22T05:22:34;95110.88;;;7.80;95.37
65800;BME280;52544;48.116;11.660;2023-04-22T05:25:00;95107.88;;;7.84;94.53
65800;BME280;52544;48.116;11.660;2023-04-22T05:27:25;95113.88;;;7.86;94.40
65800;BME280;52544;48.116;11.660;2023-04-22T05:29:50;95109.16;;;7.90;93.58
65800;BME280;52544;48.116;11.660;2023-04-22T05:32:16;95113.09;;;7.95;93.89
65800;BME280;52544;48.116;11.660;2023-04-22T05:34:41;95112.34;;;8.05;94.32
65800;BME280;52544;48.116;11.660;2023-04-22T05:37:07;95111.72;;;8.12;95.12
65800;BME280;52544;48.116;11.660;2023-04-22T05:39:33;95111.63;;;8.23;94.54
65800;BME280;52544;48.116;11.660;2023-04-22T05:41:59;95100.91;;;8.36;94.72
65800;BME280;52544;48.116;11.660;2023-04-22T05:44:25;95102.66;;;8.47;93.10
65800;BME280;52544;48.116;11.660;2023-04-22T05:46:50;95112.19;;;8.59;91.16
65800;BME280;52544;48.116;11.660;2023-04-22T05:49:15;95106.13;;;8.68;90.40
65800;BME280;52544;48.116;11.660;2023-04-22T05:51:41;95116.22;;;8.84;89.13
65800;BME280;52544;48.116;11.660;2023-04-22T05:54:06;95124.59;;;8.99;87.38
65800;BME280;52544;48.116;11.660;2023-04-22T05:56:32;95119.63;;;9.06;86.81
65800;BME280;52544;48.116;11.660;2023-04-22T05:58:57;95125.19;;;9.12;86.55
65800;BME280;52544;48.116;11.660;2023-04-22T06:01:23;95125.09;;;9.23;85.17
65800;BME280;52544;48.116;11.660;2023-04-22T06:03:49;95124.28;;;9.33;84.27
65800;BME280;52544;48.116;11.660;2023-04-22T06:06:14;95136.56;;;9.43;83.21
65800;BME280;52544;48.116;11.660;2023-04-22T06:08:40;95131.03;;;9.56;83.25
65800;BME280;52544;48.116;11.660;2023-04-22T06:11:05;95136.75;;;9.71;82.97
65800;BME280;52544;48.116;11.660;2023-04-22T06:13:31;95144.00;;;9.88;81.96
65800;BME280;52544;48.116;11.660;2023-04-22T06:15:56;95151.41;;;10.04;81.03
65800;BME280;52544;48.116;11.660;2023-04-22T06:18:22;95148.53;;;10.26;79.60
65800;BME280;52544;48.116;11.660;2023-04-22T06:20:47;95145.72;;;10.47;78.20
65800;BME280;52544;48.116;11.660;2023-04-22T06:23:12;95144.44;;;10.71;78.23
65800;BME280;52544;48.116;11.660;2023-04-22T06:25:38;95151.22;;;10.93;76.74
65800;BME280;52544;48.116;11.660;2023-04-22T06:28:03;95148.50;;;11.12;73.39
65800;BME280;52544;48.116;11.660;2023-04-22T06:30:28;95147.06;;;11.27;72.77
65800;BME280;52544;48.116;11.660;2023-04-22T06:32:54;95148.31;;;11.51;72.84
65800;BME280;52544;48.116;11.660;2023-04-22T06:35:20;95145.94;;;11.58;71.61
65800;BME280;52544;48.116;11.660;2023-04-22T06:37:46;95145.69;;;11.79;71.92
65800;BME280;52544;48.116;11.660;2023-04-22T06:40:13;95141.34;;;12.05;69.29
65800;BME280;52544;48.116;11.660;2023-04-22T06:42:39;95145.53;;;12.25;68.44
65800;BME280;52544;48.116;11.660;2023-04-22T06:45:05;95144.69;;;12.43;67.80
65800;BME280;52544;48.116;11.660;2023-04-22T06:47:32;95147.47;;;12.59;66.84
65800;BME280;52544;48.116;11.660;2023-04-22T06:49:58;95136.44;;;12.72;65.24
65800;BME280;52544;48.116;11.660;2023-04-22T06:52:23;95141.09;;;12.96;63.34
65800;BME280;52544;48.116;11.660;2023-04-22T06:54:49;95144.47;;;13.06;62.59
65800;BME280;52544;48.116;11.660;2023-04-22T06:57:14;95142.91;;;13.21;61.45
65800;BME280;52544;48.116;11.660;2023-04-22T06:59:39;95145.47;;;13.31;60.32
65800;BME280;52544;48.116;11.660;2023-04-22T07:02:06;95140.78;;;13.51;59.55
65800;BME280;52544;48.116;11.660;2023-04-22T07:04:31;95138.81;;;13.61;59.16
65800;BME280;52544;48.116;11.660;2023-04-22T07:06:57;95144.81;;;13.71;61.03
65800;BME280;52544;48.116;11.660;2023-04-22T07:09:22;95139.50;;;13.71;61.15
65800;BME280;52544;48.116;11.660;2023-04-22T07:11:48;95138.88;;;13.78;58.18
65800;BME280;52544;48.116;11.660;2023-04-22T07:14:13;95143.22;;;13.87;57.08
65800;BME280;52544;48.116;11.660;2023-04-22T07:16:38;95131.78;;;13.94;57.01
65800;BME280;52544;48.116;11.660;2023-04-22T07:19:04;95131.94;;;14.01;57.29
65800;BME280;52544;48.116;11.660;2023-04-22T07:21:32;95131.81;;;14.11;57.22
65800;BME280;52544;48.116;11.660;2023-04-22T07:23:57;95130.13;;;14.18;56.34
65800;BME280;52544;48.116;11.660;2023-04-22T07:26:23;95138.66;;;14.46;55.30
65800;BME280;52544;48.116;11.660;2023-04-22T07:28:49;95122.38;;;14.65;55.79
65800;BME280;52544;48.116;11.660;2023-04-22T07:31:15;95117.72;;;14.84;53.23
65800;BME280;52544;48.116;11.660;2023-04-22T07:33:40;95118.84;;;15.06;52.89
65800;BME280;52544;48.116;11.660;2023-04-22T07:36:06;95119.47;;;15.24;54.14
65800;BME280;52544;48.116;11.660;2023-04-22T07:38:32;95108.22;;;15.45;53.82
65800;BME280;52544;48.116;11.660;2023-04-22T07:40:57;95107.72;;;15.49;52.73
65800;BME280;52544;48.116;11.660;2023-04-22T07:43:22;95111.84;;;15.60;52.21
65800;BME280;52544;48.116;11.660;2023-04-22T07:45:48;95108.13;;;15.78;51.92
65800;BME280;52544;48.116;11.660;2023-04-22T07:48:13;95108.97;;;16.01;51.68
65800;BME280;52544;48.116;11.660;2023-04-22T07:50:39;95110.38;;;16.20;50.48
65800;BME280;52544;48.116;11.660;2023-04-22T07:53:04;95116.97;;;16.32;49.49
65800;BME280;52544;48.116;11.660;2023-04-22T07:55:30;95120.38;;;16.49;48.87
65800;BME280;52544;48.116;11.660;2023-04-22T07:57:56;95119.84;;;16.54;49.37
65800;BME280;52544;48.116;11.660;2023-04-22T08:00:21;95107.97;;;16.79;48.89
65800;BME280;52544;48.116;11.660;2023-04-22T08:02:47;95109.28;;;16.98;46.74
65800;BME280;52544;48.116;11.660;2023-04-22T08:05:12;95109.31;;;17.13;45.60
65800;BME280;52544;48.116;11.660;2023-04-22T08:07:38;95113.91;;;17.04;45.41
65800;BME280;52544;48.116;11.660;2023-04-22T08:10:04;95106.56;;;17.36;45.20
65800;BME280;52544;48.116;11.660;2023-04-22T08:12:30;95102.88;;;17.52;45.92
65800;BME280;52544;48.116;11.660;2023-04-22T08:14:55;95105.53;;;17.66;44.29
65800;BME280;52544;48.116;11.660;2023-04-22T08:17:22;95111.06;;;17.80;45.00
65800;BME280;52544;48.116;11.660;2023-04-22T08:19:48;95112.53;;;17.97;46.65
65800;BME280;52544;48.116;11.660;2023-04-22T08:22:14;95108.53;;;18.08;47.21
65800;BME280;52544;48.116;11.660;2023-04-22T08:24:40;95110.75;;;18.04;45.69
65800;BME280;52544;48.116;11.660;2023-04-22T08:27:06;95116.75;;;18.06;45.25
65800;BME280;52544;48.116;11.660;2023-04-22T08:29:31;95107.81;;;17.99;45.77
65800;BME280;52544;48.116;11.660;2023-04-22T08:31:57;95104.47;;;18.12;45.89
65800;BME280;52544;48.116;11.660;2023-04-22T08:34:23;95112.59;;;18.04;45.69
65800;BME280;52544;48.116;11.660;2023-04-22T08:36:50;95113.56;;;18.17;45.12
65800;BME280;52544;48.116;11.660;2023-04-22T08:39:16;95113.56;;;18.17;43.60
65800;BME280;52544;48.116;11.660;2023-04-22T08:41:43;95114.03;;;18.21;43.96
65800;BME280;52544;48.116;11.660;2023-04-22T08:44:09;95122.16;;;18.28;45.58
65800;BME280;52544;48.116;11.660;2023-04-22T08:46:36;95118.53;;;18.35;46.37
65800;BME280;52544;48.116;11.660;2023-04-22T08:49:02;95114.25;;;18.41;44.03
65800;BME280;52544;48.116;11.660;2023-04-22T08:51:29;95113.94;;;18.51;45.87
65800;BME280;52544;48.116;11.660;2023-04-22T08:53:56;95110.28;;;18.58;45.58
65800;BME280;52544;48.116;11.660;2023-04-22T08:56:23;95111.59;;;18.69;44.84
65800;BME280;52544;48.116;11.660;2023-04-22T08:58:49;95100.63;;;18.79;45.70
65800;BME280;52544;48.116;11.660;2023-04-22T09:01:16;95112.16;;;18.79;46.05
65800;BME280;52544;48.116;11.660;2023-04-22T09:03:42;95105.19;;;18.85;46.00
65800;BME280;52544;48.116;11.660;2023-04-22T09:06:09;95099.00;;;18.84;46.07
65800;BME280;52544;48.116;11.660;2023-04-22T09:08:35;95101.38;;;18.72;43.87
65800;BME280;52544;48.116;11.660;2023-04-22T09:11:02;95114.16;;;18.70;44.77
65800;BME280;52544;48.116;11.660;2023-04-22T09:13:27;95100.88;;;18.69;44.96
65800;BME280;52544;48.116;11.660;2023-04-22T09:15:53;95102.50;;;18.63;44.85
65800;BME280;52544;48.116;11.660;2023-04-22T09:18:19;95101.06;;;18.39;43.99
65800;BME280;52544;48.116;11.660;2023-04-22T09:20:48;95096.66;;;18.53;44.83
65800;BME280;52544;48.116;11.660;2023-04-22T09:23:14;95092.50;;;18.72;44.71
65800;BME280;52544;48.116;11.660;2023-04-22T09:25:40;95093.66;;;18.84;44.63
65800;BME280;52544;48.116;11.660;2023-04-22T09:28:10;95090.63;;;18.94;45.41
65800;BME280;52544;48.116;11.660;2023-04-22T09:30:36;95089.72;;;19.08;45.87
65800;BME280;52544;48.116;11.660;2023-04-22T09:33:04;95088.16;;;19.20;45.39
65800;BME280;52544;48.116;11.660;2023-04-22T09:35:30;95086.16;;;19.29;46.39
65800;BME280;52544;48.116;11.660;2023-04-22T09:37:57;95076.84;;;19.32;45.60
65800;BME280;52544;48.116;11.660;2023-04-22T09:40:24;95082.06;;;19.40;44.75
65800;BME280;52544;48.116;11.660;2023-04-22T09:42:54;95083.72;;;19.41;44.08
65800;BME280;52544;48.116;11.660;2023-04-22T09:45:33;95091.44;;;19.57;45.12
65800;BME280;52544;48.116;11.660;2023-04-22T09:50:27;95084.34;;;19.78;44.82
65800;BME280;52544;48.116;11.660;2023-04-22T09:53:04;95079.41;;;19.81;44.25
65800;BME280;52544;48.116;11.660;2023-04-22T09:55:33;95078.44;;;19.89;42.86
65800;BME280;52544;48.116;11.660;2023-04-22T09:58:07;95074.09;;;19.94;43.23
65800;BME280;52544;48.116;11.660;2023-04-22T10:00:35;95082.59;;;19.98;41.69
65800;BME280;52544;48.116;11.660;2023-04-22T10:03:04;95072.50;;;20.13;41.06
65800;BME280;52544;48.116;11.660;2023-04-22T10:05:30;95073.56;;;20.26;41.94
65800;BME280;52544;48.116;11.660;2023-04-22T10:07:56;95066.44;;;20.53;39.67
65800;BME280;52544;48.116;11.660;2023-04-22T10:10:22;95060.03;;;20.60;38.86
65800;BME280;52544;48.116;11.660;2023-04-22T10:12:48;95053.19;;;20.71;40.27
65800;BME280;52544;48.116;11.660;2023-04-22T10:15:14;95059.00;;;20.88;40.18
65800;BME280;52544;48.116;11.660;2023-04-22T10:17:40;95051.13;;;20.93;39.24
65800;BME280;52544;48.116;11.660;2023-04-22T10:20:10;95055.25;;;21.09;39.19
65800;BME280;52544;48.116;11.660;2023-04-22T10:22:41;95046.75;;;21.32;40.73
65800;BME280;52544;48.116;11.660;2023-04-22T10:25:11;95049.84;;;21.42;39.54
65800;BME280;52544;48.116;11.660;2023-04-22T10:27:38;95050.63;;;21.56;38.72
65800;BME280;52544;48.116;11.660;2023-04-22T10:30:03;95047.25;;;21.74;37.71
65800;BME280;52544;48.116;11.660;2023-04-22T10:32:29;95031.91;;;21.81;36.68
65800;BME280;52544;48.116;11.660;2023-04-22T10:35:09;95053.44;;;21.81;35.34
65800;BME280;52544;48.116;11.660;2023-04-22T10:37:36;95041.31;;;22.03;36.56
65800;BME280;52544;48.116;11.660;2023-04-22T10:40:14;95046.84;;;22.21;36.53
65800;BME280;52544;48.116;11.660;2023-04-22T10:42:51;95034.94;;;22.36;36.68
65800;BME280;52544;48.116;11.660;2023-04-22T10:45:16;95038.22;;;22.44;35.39
65800;BME280;52544;48.116;11.660;2023-04-22T10:47:43;95028.03;;;22.71;35.35
65800;BME280;52544;48.116;11.660;2023-04-22T10:50:30;95021.03;;;22.89;31.85
65800;BME280;52544;48.116;11.660;2023-04-22T10:53:01;95019.59;;;22.93;33.10
65800;BME280;52544;48.116;11.660;2023-04-22T10:55:50;95015.81;;;23.19;34.59
65800;BME280;52544;48.116;11.660;2023-04-22T10:58:20;95020.72;;;23.29;32.96
65800;BME280;52544;48.116;11.660;2023-04-22T11:00:45;95018.31;;;23.39;31.71
65800;BME280;52544;48.116;11.660;2023-04-22T11:03:14;95018.75;;;23.36;32.10
65800;BME280;52544;48.116;11.660;2023-04-22T11:05:40;95011.81;;;23.28;30.73
65800;BME280;52544;48.116;11.660;2023-04-22T11:08:11;95011.34;;;23.50;30.20
65800;BME280;52544;48.116;11.660;2023-04-22T11:10:45;95014.16;;;23.80;32.32
65800;BME280;52544;48.116;11.660;2023-04-22T11:13:16;95010.81;;;23.96;31.40
65800;BME280;52544;48.116;11.660;2023-04-22T11:15:45;95021.41;;;24.28;31.42
65800;BME280;52544;48.116;11.660;2023-04-22T11:18:18;95013.88;;;24.30;31.29
65800;BME280;52544;48.116;11.660;2023-04-22T11:20:44;95009.53;;;24.29;30.71
65800;BME280;52544;48.116;11.660;2023-04-22T11:23:09;95009.97;;;24.14;30.05
65800;BME280;52544;48.116;11.660;2023-04-22T11:25:35;95007.34;;;24.07;29.61
65800;BME280;52544;48.116;11.660;2023-04-22T11:28:01;95001.41;;;24.29;30.64
65800;BME280;52544;48.116;11.660;2023-04-22T11:30:27;94999.16;;;24.44;29.99
65800;BME280;52544;48.116;11.660;2023-04-22T11:32:55;94997.31;;;24.80;29.91
65800;BME280;52544;48.116;11.660;2023-04-22T11:35:30;94999.97;;;25.10;30.62
65800;BME280;52544;48.116;11.660;2023-04-22T11:37:58;95000.91;;;25.15;28.93
65800;BME280;52544;48.116;11.660;2023-04-22T11:40:32;94987.84;;;25.24;29.09
65800;BME280;52544;48.116;11.660;2023-04-22T11:43:01;94995.81;;;25.42;29.41
65800;BME280;52544;48.116;11.660;2023-04-22T11:45:28;94995.44;;;25.62;29.42
65800;BME280;52544;48.116;11.660;2023-04-22T11:47:54;94995.19;;;25.64;28.16
65800;BME280;52544;48.116;11.660;2023-04-22T11:50:23;94992.38;;;25.71;28.23
65800;BME280;52544;48.116;11.660;2023-04-22T11:53:02;94994.81;;;25.72;27.78
65800;BME280;52544;48.116;11.660;2023-04-22T11:55:33;94989.97;;;25.86;28.27
65800;BME280;52544;48.116;11.660;2023-04-22T11:58:06;94994.69;;;25.90;28.58
65800;BME280;52544;48.116;11.660;2023-04-22T12:00:41;94988.59;;;26.12;28.11
65800;BME280;52544;48.116;11.660;2023-04-22T12:03:11;94997.91;;;26.45;27.35
65800;BME280;52544;48.116;11.660;2023-04-22T12:05:50;94992.88;;;26.25;26.87
65800;BME280;52544;48.116;11.660;2023-04-22T12:08:18;94996.19;;;25.98;27.39
65800;BME280;52544;48.116;11.660;2023-04-22T12:10:49;94993.13;;;25.95;26.97
65800;BME280;52544;48.116;11.660;2023-04-22T12:13:20;94988.94;;;26.15;26.76
65800;BME280;52544;48.116;11.660;2023-04-22T12:15:46;94994.72;;;26.36;27.17
65800;BME280;52544;48.116;11.660;2023-04-22T12:18:12;94991.13;;;26.30;26.69
65800;BME280;52544;48.116;11.660;2023-04-22T12:20:39;94986.59;;;26.36;26.39
65800;BME280;52544;48.116;11.660;2023-04-22T12:23:10;94981.06;;;26.14;27.15
65800;BME280;52544;48.116;11.660;2023-04-22T12:25:36;94976.19;;;26.16;26.18
65800;BME280;52544;48.116;11.660;2023-04-22T12:28:02;94987.09;;;26.04;26.72
65800;BME280;52544;48.116;11.660;2023-04-22T12:30:27;94973.00;;;26.19;26.62
65800;BME280;52544;48.116;11.660;2023-04-22T12:32:53;94982.72;;;26.32;26.75
65800;BME280;52544;48.116;11.660;2023-04-22T12:35:18;94974.00;;;26.13;25.83
65800;BME280;52544;48.116;11.660;2023-04-22T12:37:44;94980.09;;;26.37;26.47
65800;BME280;52544;48.116;11.660;2023-04-22T12:40:09;94973.09;;;26.24;28.28
65800;BME280;52544;48.116;11.660;2023-04-22T12:42:36;94973.72;;;26.43;27.37
65800;BME280;52544;48.116;11.660;2023-04-22T12:45:02;94963.81;;;26.65;28.17
65800;BME280;52544;48.116;11.660;2023-04-22T12:47:27;94964.88;;;26.48;26.95
65800;BME280;52544;48.116;11.660;2023-04-22T12:49:53;94963.69;;;26.43;27.47
65800;BME280;52544;48.116;11.660;2023-04-22T12:52:18;94965.88;;;26.30;28.24
65800;BME280;52544;48.116;11.660;2023-04-22T12:54:44;94964.91;;;26.36;27.51